sensor_id;sensor_type;location;lat;lon;timestamp;temperature;humidity
26479;DHT22;14163;-26.142;27.992;2023-04-28T00:00:27;24.50;99.90
26479;DHT22;14163;-26.142;27.992;2023-04-28T00:02:58;24.50;99.90
26479;DHT22;14163;-26.142;27.992;2023-04-28T00:05:27;24.50;99.90
26479;DHT22;14163;-26.142;27.992;2023-04-28T00:07:56;24.40;99.90
26479;DHT22;14163;-26.142;27.992;2023-04-28T00:10:26;24.30;99.90
26479;DHT22;14163;-26.142;27.992;2023-04-28T00:12:55;24.30;99.90
26479;DHT22;14163;-26.142;27.992;2023-04-28T00:15:24;24.30;99.90
26479;DHT22;14163;-26.142;27.992;2023-04-28T00:17:54;24.20;99.90
26479;DHT22;14163;-26.142;27.992;2023-04-28T00:20:25;24.20;99.90
26479;DHT22;14163;-26.142;27.992;2023-04-28T00:22:54;24.20;99.90
26479;DHT22;14163;-26.142;27.992;2023-04-28T00:25:24;24.20;99.90
26479;DHT22;14163;-26.142;27.992;2023-04-28T00:27:54;24.10;99.90
26479;DHT22;14163;-26.142;27.992;2023-04-28T00:30:23;24.20;99.90
26479;DHT22;14163;-26.142;27.992;2023-04-28T00:32:53;24.20;99.90
26479;DHT22;14163;-26.142;27.992;2023-04-28T00:35:24;24.20;99.90
26479;DHT22;14163;-26.142;27.992;2023-04-28T00:37:53;24.20;99.90
26479;DHT22;14163;-26.142;27.992;2023-04-28T00:40:22;24.20;99.90
26479;DHT22;14163;-26.142;27.992;2023-04-28T00:42:52;24.20;99.90
26479;DHT22;14163;-26.142;27.992;2023-04-28T00:45:21;24.20;99.90
26479;DHT22;14163;-26.142;27.992;2023-04-28T00:47:50;24.20;99.90
26479;DHT22;14163;-26.142;27.992;2023-04-28T00:50:20;24.20;99.90
26479;DHT22;14163;-26.142;27.992;2023-04-28T00:52:51;24.10;99.90
26479;DHT22;14163;-26.142;27.992;2023-04-28T00:55:21;24.10;99.90
26479;DHT22;14163;-26.142;27.992;2023-04-28T00:57:53;24.00;99.90
26479;DHT22;14163;-26.142;27.992;2023-04-28T01:00:23;23.90;99.90
26479;DHT22;14163;-26.142;27.992;2023-04-28T01:02:53;23.90;99.90
26479;DHT22;14163;-26.142;27.992;2023-04-28T01:05:24;23.80;99.90
26479;DHT22;14163;-26.142;27.992;2023-04-28T01:07:56;23.80;99.90
26479;DHT22;14163;-26.142;27.992;2023-04-28T01:10:25;23.80;99.90
26479;DHT22;14163;-26.142;27.992;2023-04-28T01:12:54;23.80;99.90
26479;DHT22;14163;-26.142;27.992;2023-04-28T01:15:24;23.80;99.90
26479;DHT22;14163;-26.142;27.992;2023-04-28T01:17:53;23.80;99.90
26479;DHT22;14163;-26.142;27.992;2023-04-28T01:20:23;23.70;99.90
26479;DHT22;14163;-26.142;27.992;2023-04-28T01:22:52;23.70;99.90
26479;DHT22;14163;-26.142;27.992;2023-04-28T01:25:23;23.70;99.90
26479;DHT22;14163;-26.142;27.992;2023-04-28T01:27:53;23.70;99.90
26479;DHT22;14163;-26.142;27.992;2023-04-28T01:30:22;23.70;99.90
26479;DHT22;14163;-26.142;27.992;2023-04-28T01:32:51;23.70;99.90
26479;DHT22;14163;-26.142;27.992;2023-04-28T01:35:21;23.70;99.90
26479;DHT22;14163;-26.142;27.992;2023-04-28T01:37:50;23.70;99.90
26479;DHT22;14163;-26.142;27.992;2023-04-28T01:40:19;23.70;99.90
26479;DHT22;14163;-26.142;27.992;2023-04-28T01:42:50;23.70;99.90
26479;DHT22;14163;-26.142;27.992;2023-04-28T01:45:19;23.70;99.90
26479;DHT22;14163;-26.142;27.992;2023-04-28T01:47:49;23.60;99.90
26479;DHT22;14163;-26.142;27.992;2023-04-28T01:50:18;23.60;99.90
26479;DHT22;14163;-26.142;27.992;2023-04-28T01:52:47;23.60;99.90
26479;DHT22;14163;-26.142;27.992;2023-04-28T01:55:17;23.50;99.90
26479;DHT22;14163;-26.142;27.992;2023-04-28T01:57:46;23.50;99.90
26479;DHT22;14163;-26.142;27.992;2023-04-28T02:00:17;23.50;99.90
26479;DHT22;14163;-26.142;27.992;2023-04-28T02:02:46;23.50;99.90
26479;DHT22;14163;-26.142;27.992;2023-04-28T02:05:16;23.50;99.90
26479;DHT22;14163;-26.142;27.992;2023-04-28T02:07:45;23.50;99.90
26479;DHT22;14163;-26.142;27.992;2023-04-28T02:10:14;23.50;99.90
26479;DHT22;14163;-26.142;27.992;2023-04-28T02:12:43;23.50;99.90
26479;DHT22;14163;-26.142;27.992;2023-04-28T02:15:12;23.50;99.90
26479;DHT22;14163;-26.142;27.992;2023-04-28T02:17:44;23.50;99.90
26479;DHT22;14163;-26.142;27.992;2023-04-28T02:20:14;23.50;99.90
26479;DHT22;14163;-26.142;27.992;2023-04-28T02:22:43;23.50;99.90
26479;DHT22;14163;-26.142;27.992;2023-04-28T02:25:12;23.40;99.90
26479;DHT22;14163;-26.142;27.992;2023-04-28T02:27:42;23.40;99.90
26479;DHT22;14163;-26.142;27.992;2023-04-28T02:30:11;23.40;99.90
26479;DHT22;14163;-26.142;27.992;2023-04-28T02:32:41;23.30;99.90
26479;DHT22;14163;-26.142;27.992;2023-04-28T02:35:12;23.30;99.90
26479;DHT22;14163;-26.142;27.992;2023-04-28T02:37:41;23.20;99.90
26479;DHT22;14163;-26.142;27.992;2023-04-28T02:40:11;23.20;99.90
26479;DHT22;14163;-26.142;27.992;2023-04-28T02:42:41;23.20;99.90
26479;DHT22;14163;-26.142;27.992;2023-04-28T02:45:10;23.10;99.90
26479;DHT22;14163;-26.142;27.992;2023-04-28T02:47:40;23.00;99.90
26479;DHT22;14163;-26.142;27.992;2023-04-28T02:50:11;23.00;99.90
26479;DHT22;14163;-26.142;27.992;2023-04-28T02:52:40;23.00;99.90
26479;DHT22;14163;-26.142;27.992;2023-04-28T02:55:09;23.00;99.90
26479;DHT22;14163;-26.142;27.992;2023-04-28T02:57:38;23.00;99.90
26479;DHT22;14163;-26.142;27.992;2023-04-28T03:00:09;23.00;99.90
26479;DHT22;14163;-26.142;27.992;2023-04-28T03:02:38;22.90;99.90
26479;DHT22;14163;-26.142;27.992;2023-04-28T03:05:08;22.90;99.90
26479;DHT22;14163;-26.142;27.992;2023-04-28T03:07:39;22.90;99.90
26479;DHT22;14163;-26.142;27.992;2023-04-28T03:10:08;22.90;99.90
26479;DHT22;14163;-26.142;27.992;2023-04-28T03:12:38;22.80;99.90
26479;DHT22;14163;-26.142;27.992;2023-04-28T03:15:08;22.80;99.90
26479;DHT22;14163;-26.142;27.992;2023-04-28T03:17:37;22.80;99.90
26479;DHT22;14163;-26.142;27.992;2023-04-28T03:20:09;22.70;99.90
26479;DHT22;14163;-26.142;27.992;2023-04-28T03:22:40;22.80;99.90
26479;DHT22;14163;-26.142;27.992;2023-04-28T03:25:09;22.80;99.90
26479;DHT22;14163;-26.142;27.992;2023-04-28T03:27:39;22.80;99.90
26479;DHT22;14163;-26.142;27.992;2023-04-28T03:30:10;22.80;99.90
26479;DHT22;14163;-26.142;27.992;2023-04-28T03:32:39;22.80;99.90
26479;DHT22;14163;-26.142;27.992;2023-04-28T03:35:09;22.80;99.90
26479;DHT22;14163;-26.142;27.992;2023-04-28T03:37:40;22.80;99.90
26479;DHT22;14163;-26.142;27.992;2023-04-28T03:40:10;22.70;99.90
26479;DHT22;14163;-26.142;27.992;2023-04-28T03:42:39;22.70;99.90
26479;DHT22;14163;-26.142;27.992;2023-04-28T03:45:09;22.70;99.90
26479;DHT22;14163;-26.142;27.992;2023-04-28T03:47:39;22.60;99.90
26479;DHT22;14163;-26.142;27.992;2023-04-28T03:50:09;22.60;99.90
26479;DHT22;14163;-26.142;27.992;2023-04-28T03:52:40;22.50;99.90
26479;DHT22;14163;-26.142;27.992;2023-04-28T03:55:10;22.60;99.90
26479;DHT22;14163;-26.142;27.992;2023-04-28T03:57:39;22.60;99.90
26479;DHT22;14163;-26.142;27.992;2023-04-28T04:00:09;22.70;99.90
26479;DHT22;14163;-26.142;27.992;2023-04-28T04:02:39;22.70;99.90
26479;DHT22;14163;-26.142;27.992;2023-04-28T04:05:08;22.70;99.90
26479;DHT22;14163;-26.142;27.992;2023-04-28T06:07:08;18.80;99.90
26479;DHT22;14163;-26.142;27.992;2023-04-28T06:09:38;19.10;99.90
26479;DHT22;14163;-26.142;27.992;2023-04-28T06:12:07;19.70;99.90
26479;DHT22;14163;-26.142;27.992;2023-04-28T06:14:37;20.50;99.90
26479;DHT22;14163;-26.142;27.992;2023-04-28T06:17:07;21.20;99.90
26479;DHT22;14163;-26.142;27.992;2023-04-28T06:19:36;21.80;99.90
26479;DHT22;14163;-26.142;27.992;2023-04-28T06:22:07;22.40;99.90
26479;DHT22;14163;-26.142;27.992;2023-04-28T06:24:36;22.90;99.90
26479;DHT22;14163;-26.142;27.992;2023-04-28T06:27:07;23.20;99.90
26479;DHT22;14163;-26.142;27.992;2023-04-28T06:29:36;23.30;99.90
26479;DHT22;14163;-26.142;27.992;2023-04-28T06:32:06;23.30;99.90
26479;DHT22;14163;-26.142;27.992;2023-04-28T06:34:38;23.30;99.90
26479;DHT22;14163;-26.142;27.992;2023-04-28T06:37:09;23.40;99.90
26479;DHT22;14163;-26.142;27.992;2023-04-28T06:39:38;23.40;99.90
26479;DHT22;14163;-26.142;27.992;2023-04-28T06:42:07;23.50;99.90
26479;DHT22;14163;-26.142;27.992;2023-04-28T06:44:36;23.50;99.90
26479;DHT22;14163;-26.142;27.992;2023-04-28T06:47:06;23.40;99.90
26479;DHT22;14163;-26.142;27.992;2023-04-28T06:49:35;23.40;99.90
26479;DHT22;14163;-26.142;27.992;2023-04-28T06:52:04;23.30;99.90
26479;DHT22;14163;-26.142;27.992;2023-04-28T06:54:36;23.40;99.90
26479;DHT22;14163;-26.142;27.992;2023-04-28T06:57:06;23.30;99.90
26479;DHT22;14163;-26.142;27.992;2023-04-28T06:59:35;23.50;99.90
26479;DHT22;14163;-26.142;27.992;2023-04-28T07:02:05;23.60;99.90
26479;DHT22;14163;-26.142;27.992;2023-04-28T07:04:35;23.70;99.90
26479;DHT22;14163;-26.142;27.992;2023-04-28T07:07:04;23.70;99.90
26479;DHT22;14163;-26.142;27.992;2023-04-28T07:09:36;23.90;99.90
26479;DHT22;14163;-26.142;27.992;2023-04-28T07:12:05;23.90;99.90
26479;DHT22;14163;-26.142;27.992;2023-04-28T07:14:35;24.00;99.90
26479;DHT22;14163;-26.142;27.992;2023-04-28T07:17:04;24.00;99.90
26479;DHT22;14163;-26.142;27.992;2023-04-28T07:19:33;24.10;99.90
26479;DHT22;14163;-26.142;27.992;2023-04-28T07:22:02;23.90;99.90
26479;DHT22;14163;-26.142;27.992;2023-04-28T07:24:32;24.10;99.90
26479;DHT22;14163;-26.142;27.992;2023-04-28T07:27:03;24.30;99.90
26479;DHT22;14163;-26.142;27.992;2023-04-28T07:29:32;24.30;99.90
26479;DHT22;14163;-26.142;27.992;2023-04-28T07:32:02;24.30;99.90
26479;DHT22;14163;-26.142;27.992;2023-04-28T07:34:34;24.40;99.90
26479;DHT22;14163;-26.142;27.992;2023-04-28T07:37:03;24.50;99.90
26479;DHT22;14163;-26.142;27.992;2023-04-28T07:39:33;24.60;99.90
26479;DHT22;14163;-26.142;27.992;2023-04-28T07:42:04;24.60;99.90
26479;DHT22;14163;-26.142;27.992;2023-04-28T07:44:33;24.60;99.90
26479;DHT22;14163;-26.142;27.992;2023-04-28T07:47:03;24.60;99.90
26479;DHT22;14163;-26.142;27.992;2023-04-28T07:49:32;24.80;99.90
26479;DHT22;14163;-26.142;27.992;2023-04-28T07:52:01;24.90;99.90
26479;DHT22;14163;-26.142;27.992;2023-04-28T07:54:30;24.80;99.90
26479;DHT22;14163;-26.142;27.992;2023-04-28T07:57:00;24.90;99.90
26479;DHT22;14163;-26.142;27.992;2023-04-28T07:59:34;24.50;99.90
26479;DHT22;14163;-26.142;27.992;2023-04-28T08:02:03;24.30;99.90
26479;DHT22;14163;-26.142;27.992;2023-04-28T08:04:32;24.30;99.90
26479;DHT22;14163;-26.142;27.992;2023-04-28T08:07:03;24.50;99.90
26479;DHT22;14163;-26.142;27.992;2023-04-28T08:09:32;24.50;99.90
26479;DHT22;14163;-26.142;27.992;2023-04-28T08:12:02;24.60;99.90
26479;DHT22;14163;-26.142;27.992;2023-04-28T08:14:33;24.90;99.90
26479;DHT22;14163;-26.142;27.992;2023-04-28T08:17:02;24.80;99.90
26479;DHT22;14163;-26.142;27.992;2023-04-28T08:19:31;24.80;99.90
26479;DHT22;14163;-26.142;27.992;2023-04-28T08:22:01;24.20;99.90
26479;DHT22;14163;-26.142;27.992;2023-04-28T08:24:33;24.50;99.90
26479;DHT22;14163;-26.142;27.992;2023-04-28T08:27:02;24.60;99.90
26479;DHT22;14163;-26.142;27.992;2023-04-28T08:29:33;24.70;99.90
26479;DHT22;14163;-26.142;27.992;2023-04-28T08:32:03;24.80;99.90
26479;DHT22;14163;-26.142;27.992;2023-04-28T08:34:32;24.80;99.90
26479;DHT22;14163;-26.142;27.992;2023-04-28T08:37:02;24.40;99.90
26479;DHT22;14163;-26.142;27.992;2023-04-28T08:39:32;24.50;99.90
26479;DHT22;14163;-26.142;27.992;2023-04-28T08:42:03;24.50;99.90
26479;DHT22;14163;-26.142;27.992;2023-04-28T08:44:37;24.80;99.90
26479;DHT22;14163;-26.142;27.992;2023-04-28T08:47:11;25.20;99.90
26479;DHT22;14163;-26.142;27.992;2023-04-28T08:49:41;25.30;99.90
26479;DHT22;14163;-26.142;27.992;2023-04-28T08:52:11;25.30;99.90
26479;DHT22;14163;-26.142;27.992;2023-04-28T08:54:40;25.10;99.90
26479;DHT22;14163;-26.142;27.992;2023-04-28T08:57:10;25.30;99.90
26479;DHT22;14163;-26.142;27.992;2023-04-28T08:59:41;25.30;99.90
26479;DHT22;14163;-26.142;27.992;2023-04-28T09:02:10;25.40;99.90
26479;DHT22;14163;-26.142;27.992;2023-04-28T09:04:39;25.20;99.90
26479;DHT22;14163;-26.142;27.992;2023-04-28T09:07:11;25.20;99.90
26479;DHT22;14163;-26.142;27.992;2023-04-28T09:09:40;25.50;99.90
26479;DHT22;14163;-26.142;27.992;2023-04-28T09:12:11;25.70;99.90
26479;DHT22;14163;-26.142;27.992;2023-04-28T09:14:42;25.90;99.90
26479;DHT22;14163;-26.142;27.992;2023-04-28T09:17:12;26.00;99.90
26479;DHT22;14163;-26.142;27.992;2023-04-28T09:19:42;26.10;99.90
26479;DHT22;14163;-26.142;27.992;2023-04-28T09:22:11;26.30;99.90
26479;DHT22;14163;-26.142;27.992;2023-04-28T09:24:40;26.50;99.90
26479;DHT22;14163;-26.142;27.992;2023-04-28T09:27:10;27.00;99.90
26479;DHT22;14163;-26.142;27.992;2023-04-28T09:29:52;27.30;99.90
26479;DHT22;14163;-26.142;27.992;2023-04-28T09:32:22;27.40;99.90
26479;DHT22;14163;-26.142;27.992;2023-04-28T09:34:54;27.50;99.90
26479;DHT22;14163;-26.142;27.992;2023-04-28T09:37:24;27.40;99.90
26479;DHT22;14163;-26.142;27.992;2023-04-28T09:39:57;27.70;99.90
26479;DHT22;14163;-26.142;27.992;2023-04-28T09:42:33;28.10;99.90
26479;DHT22;14163;-26.142;27.992;2023-04-28T09:45:06;28.20;99.90
26479;DHT22;14163;-26.142;27.992;2023-04-28T09:47:36;28.40;99.90
26479;DHT22;14163;-26.142;27.992;2023-04-28T09:50:09;28.80;99.90
26479;DHT22;14163;-26.142;27.992;2023-04-28T09:52:41;29.00;99.90
26479;DHT22;14163;-26.142;27.992;2023-04-28T09:55:11;29.40;99.90
26479;DHT22;14163;-26.142;27.992;2023-04-28T09:57:44;29.70;99.90
26479;DHT22;14163;-26.142;27.992;2023-04-28T10:00:16;30.10;99.90
26479;DHT22;14163;-26.142;27.992;2023-04-28T10:02:46;30.50;99.90
26479;DHT22;14163;-26.142;27.992;2023-04-28T10:05:17;30.90;99.90
26479;DHT22;14163;-26.142;27.992;2023-04-28T10:07:47;30.90;99.90
26479;DHT22;14163;-26.142;27.992;2023-04-28T10:10:17;30.80;99.90
26479;DHT22;14163;-26.142;27.992;2023-04-28T10:12:46;31.60;99.90
26479;DHT22;14163;-26.142;27.992;2023-04-28T10:15:17;32.20;99.90
26479;DHT22;14163;-26.142;27.992;2023-04-28T10:17:48;32.80;98.90
26479;DHT22;14163;-26.142;27.992;2023-04-28T10:20:18;33.00;96.90
26479;DHT22;14163;-26.142;27.992;2023-04-28T10:22:57;33.10;96.20
26479;DHT22;14163;-26.142;27.992;2023-04-28T10:25:30;33.10;95.80
26479;DHT22;14163;-26.142;27.992;2023-04-28T10:28:04;33.50;93.50
26479;DHT22;14163;-26.142;27.992;2023-04-28T10:30:36;33.60;92.60
26479;DHT22;14163;-26.142;27.992;2023-04-28T10:33:24;33.80;92.60
26479;DHT22;14163;-26.142;27.992;2023-04-28T10:35:56;34.30;91.70
26479;DHT22;14163;-26.142;27.992;2023-04-28T10:38:25;34.70;90.30
26479;DHT22;14163;-26.142;27.992;2023-04-28T10:40:55;34.90;87.50
26479;DHT22;14163;-26.142;27.992;2023-04-28T10:43:35;35.10;83.60
26479;DHT22;14163;-26.142;27.992;2023-04-28T10:46:10;34.70;84.60
26479;DHT22;14163;-26.142;27.992;2023-04-28T10:48:53;34.30;83.20
26479;DHT22;14163;-26.142;27.992;2023-04-28T10:51:30;34.50;84.20
26479;DHT22;14163;-26.142;27.992;2023-04-28T10:54:19;34.30;83.70
26479;DHT22;14163;-26.142;27.992;2023-04-28T10:57:16;34.00;84.50
26479;DHT22;14163;-26.142;27.992;2023-04-28T10:59:49;34.20;83.50
26479;DHT22;14163;-26.142;27.992;2023-04-28T11:02:40;34.70;83.10
26479;DHT22;14163;-26.142;27.992;2023-04-28T11:05:16;35.60;80.30
26479;DHT22;14163;-26.142;27.992;2023-04-28T11:11:22;35.80;78.90
26479;DHT22;14163;-26.142;27.992;2023-04-28T11:13:53;36.60;77.20
26479;DHT22;14163;-26.142;27.992;2023-04-28T11:16:24;36.80;75.00
26479;DHT22;14163;-26.142;27.992;2023-04-28T11:19:01;36.70;73.80
26479;DHT22;14163;-26.142;27.992;2023-04-28T11:21:32;37.00;72.60
26479;DHT22;14163;-26.142;27.992;2023-04-28T11:24:08;37.30;72.80
26479;DHT22;14163;-26.142;27.992;2023-04-28T11:26:38;36.90;69.60
26479;DHT22;14163;-26.142;27.992;2023-04-28T11:29:08;37.00;69.10
26479;DHT22;14163;-26.142;27.992;2023-04-28T11:31:38;37.90;68.00
26479;DHT22;14163;-26.142;27.992;2023-04-28T11:34:10;38.10;68.00
26479;DHT22;14163;-26.142;27.992;2023-04-28T11:36:40;38.80;67.30
26479;DHT22;14163;-26.142;27.992;2023-04-28T11:39:11;38.10;66.60
26479;DHT22;14163;-26.142;27.992;2023-04-28T11:41:41;38.20;65.70
26479;DHT22;14163;-26.142;27.992;2023-04-28T11:44:12;38.10;65.30
26479;DHT22;14163;-26.142;27.992;2023-04-28T11:46:48;38.20;64.70
26479;DHT22;14163;-26.142;27.992;2023-04-28T11:49:24;37.20;65.10
26479;DHT22;14163;-26.142;27.992;2023-04-28T11:51:55;37.70;65.90
26479;DHT22;14163;-26.142;27.992;2023-04-28T11:54:27;38.20;65.10
26479;DHT22;14163;-26.142;27.992;2023-04-28T11:56:57;38.60;64.30
26479;DHT22;14163;-26.142;27.992;2023-04-28T11:59:35;38.70;64.10
26479;DHT22;14163;-26.142;27.992;2023-04-28T12:11:23;34.90;67.40
26479;DHT22;14163;-26.142;27.992;2023-04-28T12:14:06;33.70;69.60
26479;DHT22;14163;-26.142;27.992;2023-04-28T12:16:41;33.10;71.00
26479;DHT22;14163;-26.142;27.992;2023-04-28T12:19:12;32.90;72.20
26479;DHT22;14163;-26.142;27.992;2023-04-28T12:21:42;33.30;73.10
26479;DHT22;14163;-26.142;27.992;2023-04-28T12:24:16;33.40;73.10
26479;DHT22;14163;-26.142;27.992;2023-04-28T12:26:47;33.60;72.30
26479;DHT22;14163;-26.142;27.992;2023-04-28T12:29:43;33.20;72.30
26479;DHT22;14163;-26.142;27.992;2023-04-28T12:32:16;32.90;71.90
26479;DHT22;14163;-26.142;27.992;2023-04-28T12:34:46;32.90;72.70
26479;DHT22;14163;-26.142;27.992;2023-04-28T12:37:16;33.20;73.10
26479;DHT22;14163;-26.142;27.992;2023-04-28T12:39:45;33.50;72.50
26479;DHT22;14163;-26.142;27.992;2023-04-28T12:42:16;33.20;71.90
26479;DHT22;14163;-26.142;27.992;2023-04-28T12:44:45;32.90;73.10
26479;DHT22;14163;-26.142;27.992;2023-04-28T12:47:14;32.60;72.80
26479;DHT22;14163;-26.142;27.992;2023-04-28T12:49:44;32.30;75.00
26479;DHT22;14163;-26.142;27.992;2023-04-28T12:52:14;32.20;74.50
26479;DHT22;14163;-26.142;27.992;2023-04-28T12:54:44;32.40;74.80
26479;DHT22;14163;-26.142;27.992;2023-04-28T12:57:16;32.40;72.60
26479;DHT22;14163;-26.142;27.992;2023-04-28T12:59:46;32.40;72.00
26479;DHT22;14163;-26.142;27.992;2023-04-28T13:02:15;32.30;73.00
26479;DHT22;14163;-26.142;27.992;2023-04-28T13:04:44;32.50;74.10
26479;DHT22;14163;-26.142;27.992;2023-04-28T13:07:14;32.80;72.90
26479;DHT22;14163;-26.142;27.992;2023-04-28T13:09:43;32.60;72.50
26479;DHT22;14163;-26.142;27.992;2023-04-28T13:12:12;32.00;73.50
26479;DHT22;14163;-26.142;27.992;2023-04-28T13:14:43;32.10;73.80
26479;DHT22;14163;-26.142;27.992;2023-04-28T13:17:13;32.50;74.30
26479;DHT22;14163;-26.142;27.992;2023-04-28T13:19:42;33.00;74.10
26479;DHT22;14163;-26.142;27.992;2023-04-28T13:22:11;33.10;73.40
26479;DHT22;14163;-26.142;27.992;2023-04-28T13:24:40;33.20;71.80
26479;DHT22;14163;-26.142;27.992;2023-04-28T13:27:10;33.40;71.80
26479;DHT22;14163;-26.142;27.992;2023-04-28T13:29:39;33.40;71.50
26479;DHT22;14163;-26.142;27.992;2023-04-28T13:32:10;33.40;72.10
26479;DHT22;14163;-26.142;27.992;2023-04-28T13:34:39;33.70;71.50
26479;DHT22;14163;-26.142;27.992;2023-04-28T13:37:08;33.60;70.00
26479;DHT22;14163;-26.142;27.992;2023-04-28T13:39:38;33.60;69.40
26479;DHT22;14163;-26.142;27.992;2023-04-28T13:42:07;33.80;71.50
26479;DHT22;14163;-26.142;27.992;2023-04-28T13:44:39;33.90;71.00
26479;DHT22;14163;-26.142;27.992;2023-04-28T13:47:10;34.00;70.40
26479;DHT22;14163;-26.142;27.992;2023-04-28T13:49:39;34.10;70.10
26479;DHT22;14163;-26.142;27.992;2023-04-28T13:52:09;33.90;69.90
26479;DHT22;14163;-26.142;27.992;2023-04-28T13:54:38;33.80;70.40
26479;DHT22;14163;-26.142;27.992;2023-04-28T13:57:07;33.80;70.90
26479;DHT22;14163;-26.142;27.992;2023-04-28T13:59:39;33.80;70.30
26479;DHT22;14163;-26.142;27.992;2023-04-28T14:02:10;33.70;69.00
26479;DHT22;14163;-26.142;27.992;2023-04-28T14:04:39;33.70;69.10
26479;DHT22;14163;-26.142;27.992;2023-04-28T14:07:13;33.70;69.90
26479;DHT22;14163;-26.142;27.992;2023-04-28T14:09:43;33.70;69.80
26479;DHT22;14163;-26.142;27.992;2023-04-28T14:12:12;33.80;70.50
26479;DHT22;14163;-26.142;27.992;2023-04-28T14:14:42;33.80;71.30
26479;DHT22;14163;-26.142;27.992;2023-04-28T14:17:13;33.80;70.70
26479;DHT22;14163;-26.142;27.992;2023-04-28T14:19:43;33.80;71.40
26479;DHT22;14163;-26.142;27.992;2023-04-28T14:22:12;33.70;78.50
26479;DHT22;14163;-26.142;27.992;2023-04-28T14:24:44;33.50;87.70
26479;DHT22;14163;-26.142;27.992;2023-04-28T14:27:19;33.30;92.10
26479;DHT22;14163;-26.142;27.992;2023-04-28T14:29:49;33.00;88.50
26479;DHT22;14163;-26.142;27.992;2023-04-28T14:32:19;32.50;90.20
26479;DHT22;14163;-26.142;27.992;2023-04-28T14:34:49;32.20;92.10
26479;DHT22;14163;-26.142;27.992;2023-04-28T14:37:18;31.80;99.00
26479;DHT22;14163;-26.142;27.992;2023-04-28T14:39:48;31.10;99.90
26479;DHT22;14163;-26.142;27.992;2023-04-28T14:42:17;30.40;99.90
26479;DHT22;14163;-26.142;27.992;2023-04-28T14:44:47;29.70;99.90
26479;DHT22;14163;-26.142;27.992;2023-04-28T14:47:18;29.20;99.90
26479;DHT22;14163;-26.142;27.992;2023-04-28T14:50:42;28.70;99.90
26479;DHT22;14163;-26.142;27.992;2023-04-28T14:53:12;28.40;99.90
26479;DHT22;14163;-26.142;27.992;2023-04-28T14:55:41;28.20;99.90
26479;DHT22;14163;-26.142;27.992;2023-04-28T14:58:10;28.20;99.90
26479;DHT22;14163;-26.142;27.992;2023-04-28T15:00:39;28.20;99.90
26479;DHT22;14163;-26.142;27.992;2023-04-28T15:03:09;28.20;99.90
26479;DHT22;14163;-26.142;27.992;2023-04-28T15:05:40;28.30;99.90
26479;DHT22;14163;-26.142;27.992;2023-04-28T15:08:10;28.30;99.90
26479;DHT22;14163;-26.142;27.992;2023-04-28T15:10:40;28.30;99.90
26479;DHT22;14163;-26.142;27.992;2023-04-28T15:13:09;28.20;99.90
26479;DHT22;14163;-26.142;27.992;2023-04-28T15:15:39;28.20;99.90
26479;DHT22;14163;-26.142;27.992;2023-04-28T15:18:08;28.20;99.90
26479;DHT22;14163;-26.142;27.992;2023-04-28T15:20:37;28.20;99.90
26479;DHT22;14163;-26.142;27.992;2023-04-28T15:23:09;28.20;99.90
26479;DHT22;14163;-26.142;27.992;2023-04-28T15:25:38;28.20;99.90
26479;DHT22;14163;-26.142;27.992;2023-04-28T15:28:08;28.10;99.90
26479;DHT22;14163;-26.142;27.992;2023-04-28T15:30:38;28.10;99.90
26479;DHT22;14163;-26.142;27.992;2023-04-28T15:33:07;28.10;99.90
26479;DHT22;14163;-26.142;27.992;2023-04-28T15:35:43;28.10;99.90
26479;DHT22;14163;-26.142;27.992;2023-04-28T15:38:14;28.10;99.90
26479;DHT22;14163;-26.142;27.992;2023-04-28T15:40:43;28.20;99.90
26479;DHT22;14163;-26.142;27.992;2023-04-28T15:43:13;28.20;99.90
26479;DHT22;14163;-26.142;27.992;2023-04-28T15:45:42;28.10;99.90
26479;DHT22;14163;-26.142;27.992;2023-04-28T15:48:13;28.10;99.90
26479;DHT22;14163;-26.142;27.992;2023-04-28T15:50:42;28.00;99.90
26479;DHT22;14163;-26.142;27.992;2023-04-28T15:53:14;27.80;99.90
26479;DHT22;14163;-26.142;27.992;2023-04-28T15:55:44;27.70;99.90
26479;DHT22;14163;-26.142;27.992;2023-04-28T15:58:13;27.60;99.90
26479;DHT22;14163;-26.142;27.992;2023-04-28T16:00:45;27.60;99.90
26479;DHT22;14163;-26.142;27.992;2023-04-28T16:03:14;27.50;99.90
26479;DHT22;14163;-26.142;27.992;2023-04-28T16:05:43;27.60;99.90
26479;DHT22;14163;-26.142;27.992;2023-04-28T16:08:14;27.60;99.90
26479;DHT22;14163;-26.142;27.992;2023-04-28T16:10:45;27.60;99.90
26479;DHT22;14163;-26.142;27.992;2023-04-28T16:13:14;27.60;99.90
26479;DHT22;14163;-26.142;27.992;2023-04-28T16:15:45;27.60;99.90
26479;DHT22;14163;-26.142;27.992;2023-04-28T16:18:17;27.60;99.90
26479;DHT22;14163;-26.142;27.992;2023-04-28T16:20:49;27.60;99.90
26479;DHT22;14163;-26.142;27.992;2023-04-28T16:23:23;27.60;99.90
26479;DHT22;14163;-26.142;27.992;2023-04-28T16:26:05;27.70;99.90
26479;DHT22;14163;-26.142;27.992;2023-04-28T16:28:34;27.60;99.90
26479;DHT22;14163;-26.142;27.992;2023-04-28T16:31:04;27.60;99.90
26479;DHT22;14163;-26.142;27.992;2023-04-28T16:33:33;27.60;99.90
26479;DHT22;14163;-26.142;27.992;2023-04-28T16:36:03;27.60;99.90
26479;DHT22;14163;-26.142;27.992;2023-04-28T16:38:35;27.40;99.90
26479;DHT22;14163;-26.142;27.992;2023-04-28T16:41:06;27.20;99.90
26479;DHT22;14163;-26.142;27.992;2023-04-28T16:43:35;27.10;99.90
26479;DHT22;14163;-26.142;27.992;2023-04-28T16:46:04;27.00;99.90
26479;DHT22;14163;-26.142;27.992;2023-04-28T16:48:33;27.00;99.90
26479;DHT22;14163;-26.142;27.992;2023-04-28T16:51:03;26.80;99.90
26479;DHT22;14163;-26.142;27.992;2023-04-28T16:53:36;26.80;99.90
26479;DHT22;14163;-26.142;27.992;2023-04-28T16:56:06;26.70;99.90
26479;DHT22;14163;-26.142;27.992;2023-04-28T16:58:36;26.60;99.90
26479;DHT22;14163;-26.142;27.992;2023-04-28T17:01:05;26.60;99.90
26479;DHT22;14163;-26.142;27.992;2023-04-28T17:03:34;26.50;99.90
26479;DHT22;14163;-26.142;27.992;2023-04-28T17:06:07;26.40;99.90
26479;DHT22;14163;-26.142;27.992;2023-04-28T17:08:40;26.40;99.90
26479;DHT22;14163;-26.142;27.992;2023-04-28T17:11:14;26.50;99.90
26479;DHT22;14163;-26.142;27.992;2023-04-28T17:13:43;26.50;99.90
26479;DHT22;14163;-26.142;27.992;2023-04-28T17:16:12;26.50;99.90
26479;DHT22;14163;-26.142;27.992;2023-04-28T17:18:42;26.40;99.90
26479;DHT22;14163;-26.142;27.992;2023-04-28T17:21:12;26.20;99.90
26479;DHT22;14163;-26.142;27.992;2023-04-28T17:23:45;26.20;99.90
26479;DHT22;14163;-26.142;27.992;2023-04-28T17:26:15;26.10;99.90
26479;DHT22;14163;-26.142;27.992;2023-04-28T17:28:44;26.10;99.90
26479;DHT22;14163;-26.142;27.992;2023-04-28T17:31:14;26.00;99.90
26479;DHT22;14163;-26.142;27.992;2023-04-28T17:33:43;26.00;99.90
26479;DHT22;14163;-26.142;27.992;2023-04-28T17:36:12;26.00;99.90